createdAt,value
2023-07-03T00:02:02.213Z,4.25
2023-07-03T00:04:29.162Z,3.85
2023-07-03T00:06:55.727Z,4.57
2023-07-03T00:09:22.231Z,3.67
2023-07-03T00:11:49.054Z,4.72
2023-07-03T00:14:15.580Z,4.13
2023-07-03T00:16:42.080Z,3.80
2023-07-03T00:19:09.031Z,3.80
2023-07-03T00:21:39.545Z,3.53
2023-07-03T00:24:07.006Z,3.88
2023-07-03T00:26:33.454Z,3.60
2023-07-03T00:29:01.094Z,4.15
2023-07-03T00:31:27.723Z,3.92
2023-07-03T00:33:54.255Z,3.90
2023-07-03T00:36:22.776Z,4.00
2023-07-03T00:38:49.293Z,4.07
2023-07-03T00:41:15.824Z,5.03
2023-07-03T00:43:42.862Z,4.40
2023-07-03T00:46:10.258Z,4.22
2023-07-03T00:48:40.487Z,4.40
2023-07-03T00:51:07.557Z,4.03
2023-07-03T00:53:34.044Z,5.07
2023-07-03T00:56:00.501Z,4.47
2023-07-03T00:58:27.274Z,3.88
2023-07-03T01:00:57.694Z,3.42
2023-07-03T01:03:27.854Z,3.80
2023-07-03T01:05:56.554Z,3.70
2023-07-03T01:08:23.322Z,5.15
2023-07-03T01:10:49.929Z,4.57
2023-07-03T01:13:18.238Z,4.20
2023-07-03T01:15:45.824Z,4.25
2023-07-03T01:18:13.028Z,4.88
2023-07-03T01:20:42.822Z,4.60
2023-07-03T01:23:14.896Z,4.35
2023-07-03T01:25:42.564Z,3.83
2023-07-03T01:28:11.334Z,4.22
2023-07-03T01:30:41.803Z,4.32
2023-07-03T01:33:09.402Z,4.57
2023-07-03T01:35:35.878Z,4.70
2023-07-03T01:38:03.976Z,4.35
2023-07-03T01:40:30.727Z,4.47
2023-07-03T01:42:58.128Z,4.38
2023-07-03T01:45:25.679Z,4.60
2023-07-03T01:47:52.676Z,4.55
2023-07-03T01:50:24.581Z,5.60
2023-07-03T01:52:55.678Z,4.72
2023-07-03T01:55:39.737Z,3.25
2023-07-03T01:58:07.521Z,4.53
2023-07-03T02:00:41.568Z,4.63
2023-07-03T02:03:19.418Z,6.07
2023-07-03T02:05:46.898Z,5.45
2023-07-03T02:08:14.542Z,4.60
2023-07-03T02:10:40.978Z,5.65
2023-07-03T02:13:07.444Z,5.15
2023-07-03T02:15:35.433Z,6.65
2023-07-03T02:18:03.454Z,6.13
2023-07-03T02:20:31.228Z,4.28
2023-07-03T02:22:57.775Z,5.25
2023-07-03T02:25:24.689Z,4.97
2023-07-03T02:27:51.524Z,4.50
2023-07-03T02:30:17.970Z,5.40
2023-07-03T02:32:44.438Z,5.25
2023-07-03T02:35:11.118Z,4.20
2023-07-03T02:37:37.991Z,4.60
2023-07-03T02:40:11.277Z,4.63
2023-07-03T02:42:37.704Z,4.60
2023-07-03T02:45:05.739Z,4.95
2023-07-03T02:47:34.209Z,5.25
2023-07-03T02:50:02.379Z,4.93
2023-07-03T02:52:29.629Z,4.20
2023-07-03T02:54:56.230Z,5.43
2023-07-03T02:57:22.727Z,6.28
2023-07-03T02:59:50.343Z,4.00
2023-07-03T03:02:17.295Z,5.28
2023-07-03T03:04:43.852Z,4.95
2023-07-03T03:07:10.447Z,5.60
2023-07-03T03:09:37.654Z,4.40
2023-07-03T03:12:04.340Z,5.70
2023-07-03T03:14:31.740Z,4.82
2023-07-03T03:16:58.589Z,4.63
2023-07-03T03:19:25.267Z,4.70
2023-07-03T03:21:52.098Z,4.75
2023-07-03T03:24:19.487Z,5.07
2023-07-03T03:26:45.936Z,6.18
2023-07-03T03:29:12.575Z,5.45
2023-07-03T03:31:40.134Z,4.22
2023-07-03T03:34:07.829Z,4.65
2023-07-03T03:36:39.802Z,4.35
2023-07-03T03:39:07.542Z,5.55
2023-07-03T03:41:34.024Z,4.97
2023-07-03T03:44:01.927Z,5.07
2023-07-03T03:46:29.571Z,5.97
2023-07-03T03:48:56.242Z,4.55
2023-07-03T03:51:23.152Z,6.00
2023-07-03T03:53:50.092Z,4.45
2023-07-03T03:56:16.620Z,4.35
2023-07-03T03:58:44.359Z,4.55
2023-07-03T04:01:10.988Z,4.10
2023-07-03T04:03:39.790Z,4.00
2023-07-03T04:06:09.031Z,3.70
2023-07-03T04:08:36.908Z,4.72
2023-07-03T04:11:05.273Z,3.33
2023-07-03T04:13:33.106Z,3.80
2023-07-03T04:16:01.640Z,3.60
2023-07-03T04:18:29.411Z,3.58
2023-07-03T04:20:56.088Z,3.50
2023-07-03T04:23:23.464Z,2.75
2023-07-03T04:25:50.466Z,2.60
2023-07-03T04:28:18.279Z,2.95
2023-07-03T04:30:45.426Z,3.28
2023-07-03T04:33:12.542Z,2.97
2023-07-03T04:35:39.189Z,3.33
2023-07-03T04:38:05.988Z,2.47
2023-07-03T04:40:32.472Z,3.13
2023-07-03T04:42:58.984Z,2.78
2023-07-03T04:45:26.436Z,2.53
2023-07-03T04:47:53.239Z,2.95
2023-07-03T04:50:19.838Z,2.65
2023-07-03T04:52:47.609Z,2.05
2023-07-03T04:55:14.119Z,1.75
2023-07-03T04:57:41.994Z,2.17
2023-07-03T05:00:15.815Z,2.03
2023-07-03T05:02:44.062Z,1.98
2023-07-03T05:05:12.784Z,1.80
2023-07-03T05:07:42.087Z,1.85
2023-07-03T05:10:09.486Z,2.92
2023-07-03T05:12:36.927Z,2.13
2023-07-03T05:15:04.306Z,1.83
2023-07-03T05:17:31.214Z,2.03
2023-07-03T05:19:57.780Z,1.70
2023-07-03T05:22:25.475Z,1.90
2023-07-03T05:24:52.012Z,2.17
2023-07-03T05:27:18.620Z,1.63
2023-07-03T05:29:45.145Z,2.28
2023-07-03T05:32:13.449Z,1.52
2023-07-03T05:34:41.260Z,1.70
2023-07-03T05:37:08.114Z,1.85
2023-07-03T05:39:35.756Z,1.73
2023-07-03T05:42:02.821Z,1.83
2023-07-03T05:44:29.529Z,2.00
2023-07-03T05:46:56.037Z,1.70
2023-07-03T05:49:22.555Z,2.45
2023-07-03T05:51:49.779Z,2.15
2023-07-03T05:54:17.784Z,2.45
2023-07-03T05:56:55.862Z,1.80
2023-07-03T05:59:22.242Z,2.10
2023-07-03T06:01:48.753Z,3.03
2023-07-03T06:04:15.444Z,2.45
2023-07-03T06:06:41.940Z,1.77
2023-07-03T06:09:08.802Z,2.30
2023-07-03T06:11:35.192Z,2.42
2023-07-03T06:14:02.244Z,2.22
2023-07-03T06:16:31.479Z,2.10
2023-07-03T06:18:57.931Z,1.70
2023-07-03T06:21:24.433Z,2.20
2023-07-03T06:23:50.984Z,1.90
2023-07-03T06:26:17.686Z,2.05
2023-07-03T06:28:45.564Z,2.47
2023-07-03T06:31:12.018Z,2.38
2023-07-03T06:33:38.537Z,2.03
2023-07-03T06:36:05.170Z,2.50
2023-07-03T06:38:33.873Z,2.08
2023-07-03T06:41:00.345Z,2.00
2023-07-03T06:43:26.948Z,1.80
2023-07-03T06:45:56.142Z,1.92
2023-07-03T06:48:26.005Z,2.45
2023-07-03T06:51:00.775Z,2.03
2023-07-03T06:53:27.209Z,2.92
2023-07-03T06:55:59.114Z,2.45
2023-07-03T06:58:26.411Z,1.70
2023-07-03T07:00:53.053Z,2.45
2023-07-03T07:03:21.168Z,2.03
2023-07-03T07:05:47.915Z,2.13
2023-07-03T07:08:19.884Z,2.03
2023-07-03T07:10:46.678Z,2.13
2023-07-03T07:13:14.450Z,1.98
2023-07-03T07:15:42.184Z,1.52
2023-07-03T07:18:09.450Z,2.50
2023-07-03T07:20:40.092Z,1.80
2023-07-03T07:23:10.050Z,1.83
2023-07-03T07:25:37.624Z,1.70
2023-07-03T07:28:04.102Z,1.80
2023-07-03T07:30:30.475Z,1.65
2023-07-03T07:32:57.697Z,2.03
2023-07-03T07:35:24.535Z,2.22
2023-07-03T07:37:50.981Z,1.80
2023-07-03T07:40:17.643Z,1.88
2023-07-03T07:42:44.428Z,1.92
2023-07-03T07:45:12.154Z,1.95
2023-07-03T07:47:39.683Z,2.00
2023-07-03T07:50:06.616Z,2.03
2023-07-03T07:52:33.120Z,2.80
2023-07-03T07:54:59.826Z,2.55
2023-07-03T07:57:26.947Z,1.33
2023-07-03T07:59:53.409Z,1.90
2023-07-03T08:02:19.926Z,1.60
2023-07-03T08:04:46.647Z,2.30
2023-07-03T08:07:13.307Z,1.92
2023-07-03T08:09:40.069Z,1.52
2023-07-03T08:12:07.095Z,2.00
2023-07-03T08:14:33.493Z,1.05
2023-07-03T08:16:59.975Z,2.20
2023-07-03T08:19:27.434Z,2.15
2023-07-03T08:21:56.542Z,1.75
2023-07-03T08:24:23.341Z,2.17
2023-07-03T08:26:51.247Z,1.90
2023-07-03T08:29:17.812Z,2.03
2023-07-03T08:31:46.087Z,1.33
2023-07-03T08:34:14.100Z,1.80
2023-07-03T08:39:09.922Z,1.70
2023-07-03T08:41:41.605Z,2.03
2023-07-03T08:44:08.405Z,2.10
2023-07-03T08:46:35.043Z,1.77
2023-07-03T08:49:05.148Z,1.63
2023-07-03T08:51:34.261Z,2.08
2023-07-03T08:54:16.479Z,1.95
2023-07-03T08:56:43.395Z,2.63
2023-07-03T08:59:09.852Z,1.50
2023-07-03T09:01:55.204Z,2.05
2023-07-03T09:04:40.412Z,1.52
2023-07-03T09:07:09.913Z,3.00
2023-07-03T09:09:47.088Z,2.40
2023-07-03T09:12:19.160Z,1.73
2023-07-03T09:14:49.581Z,2.08
2023-07-03T09:17:17.449Z,1.98
2023-07-03T09:19:45.988Z,1.58
2023-07-03T09:22:17.808Z,2.20
2023-07-03T09:24:45.420Z,1.92
2023-07-03T09:27:26.187Z,1.20
2023-07-03T09:29:53.998Z,1.70
2023-07-03T09:32:25.546Z,2.47
2023-07-03T09:35:11.722Z,1.52
2023-07-03T09:37:42.459Z,1.92
2023-07-03T09:40:13.559Z,1.55
2023-07-03T09:42:41.594Z,1.70
2023-07-03T09:45:15.467Z,2.03
2023-07-03T09:47:43.438Z,1.85
2023-07-03T09:52:47.256Z,1.70
2023-07-03T09:55:21.244Z,1.65
2023-07-03T09:57:48.228Z,1.65
2023-07-03T10:00:22.939Z,2.63
2023-07-03T10:08:02.248Z,1.58
2023-07-03T10:13:13.217Z,2.13
2023-07-03T10:15:41.560Z,1.77
2023-07-03T10:18:14.717Z,1.60
2023-07-03T10:20:43.586Z,1.75
2023-07-03T10:23:11.565Z,1.77
2023-07-03T10:25:41.170Z,1.75
2023-07-03T10:28:10.641Z,1.67
2023-07-03T10:30:38.174Z,1.67
2023-07-03T10:33:08.219Z,1.85
2023-07-03T10:35:35.127Z,1.88
2023-07-03T10:38:17.013Z,1.77
2023-07-03T10:40:56.295Z,1.17
2023-07-03T10:43:24.169Z,1.60
2023-07-03T10:45:51.291Z,1.90
2023-07-03T10:48:21.044Z,2.15
2023-07-03T10:50:47.777Z,2.35
2023-07-03T10:53:23.503Z,2.28
2023-07-03T10:55:55.826Z,1.98
2023-07-03T10:58:27.824Z,2.08
2023-07-03T11:03:24.715Z,1.42
2023-07-03T11:06:14.130Z,1.30
2023-07-03T11:08:49.711Z,2.03
2023-07-03T11:11:25.158Z,2.10
2023-07-03T11:13:54.724Z,1.70
2023-07-03T11:16:23.808Z,1.58
2023-07-03T11:29:06.682Z,2.17
2023-07-03T11:31:33.270Z,1.88
2023-07-03T11:36:51.174Z,2.50
2023-07-03T11:44:42.113Z,3.25
2023-07-03T11:47:13.921Z,2.45
2023-07-03T11:49:48.434Z,2.17
2023-07-03T11:52:23.883Z,2.00
2023-07-03T11:54:59.006Z,1.83
2023-07-03T11:57:33.438Z,1.92
2023-07-03T12:02:43.896Z,1.33
2023-07-03T12:05:33.163Z,1.20
2023-07-03T12:08:01.714Z,2.20
2023-07-03T12:10:30.648Z,2.42
2023-07-03T12:13:23.223Z,2.10
2023-07-03T12:15:56.632Z,1.47
2023-07-03T12:18:24.979Z,1.73
2023-07-03T12:21:05.294Z,2.10
2023-07-03T12:23:37.580Z,1.83
2023-07-03T12:28:35.139Z,2.28
2023-07-03T12:31:13.106Z,2.38
2023-07-03T12:33:55.476Z,2.58
2023-07-03T12:36:34.225Z,1.55
2023-07-03T12:39:10.318Z,1.42
2023-07-03T12:41:37.914Z,1.27
2023-07-03T12:44:08.694Z,1.90
2023-07-03T12:46:39.995Z,2.08
2023-07-03T12:49:13.214Z,1.65
2023-07-03T12:51:52.805Z,1.38
2023-07-03T12:54:19.984Z,1.27
2023-07-03T12:56:46.512Z,1.85
2023-07-03T12:59:16.149Z,1.55
2023-07-03T13:01:42.689Z,2.33
2023-07-03T13:04:10.597Z,1.55
2023-07-03T13:06:37.133Z,2.28
2023-07-03T13:09:05.253Z,1.83
2023-07-03T13:11:33.104Z,1.10
2023-07-03T13:14:11.437Z,1.35
2023-07-03T13:16:38.048Z,1.50
2023-07-03T13:19:12.108Z,1.60
2023-07-03T13:21:39.852Z,1.70
2023-07-03T13:24:07.957Z,1.70
2023-07-03T13:26:37.630Z,1.35
2023-07-03T13:29:05.288Z,1.73
2023-07-03T13:31:42.703Z,1.45
2023-07-03T13:34:19.983Z,1.10
2023-07-03T13:37:01.613Z,1.55
2023-07-03T13:39:30.339Z,1.42
2023-07-03T13:41:58.216Z,1.38
2023-07-03T13:44:25.411Z,1.30
2023-07-03T13:46:53.002Z,1.25
2023-07-03T13:49:19.849Z,0.93
2023-07-03T13:51:47.208Z,1.90
2023-07-03T13:54:14.295Z,1.10
2023-07-03T13:56:41.789Z,1.45
2023-07-03T13:59:10.427Z,1.77
2023-07-03T14:01:37.618Z,1.08
2023-07-03T14:04:04.539Z,1.60
2023-07-03T14:06:31.091Z,1.90
2023-07-03T14:08:59.105Z,1.40
2023-07-03T14:11:25.526Z,1.60
2023-07-03T14:13:53.103Z,1.45
2023-07-03T14:16:19.745Z,1.73
2023-07-03T14:18:46.204Z,1.30
2023-07-03T14:21:13.088Z,1.10
2023-07-03T14:23:39.502Z,1.58
2023-07-03T14:26:06.062Z,1.95
2023-07-03T14:28:32.499Z,1.40
2023-07-03T14:30:58.927Z,1.70
2023-07-03T14:33:25.377Z,1.48
2023-07-03T14:35:52.085Z,1.33
2023-07-03T14:38:19.556Z,1.95
2023-07-03T14:40:45.984Z,1.52
2023-07-03T14:43:12.517Z,1.40
2023-07-03T14:45:39.583Z,1.70
2023-07-03T14:48:06.582Z,1.38
2023-07-03T14:50:33.028Z,2.20
2023-07-03T14:53:00.068Z,1.52
2023-07-03T14:55:27.613Z,2.03
2023-07-03T14:57:54.187Z,2.55
2023-07-03T15:00:24.249Z,1.98
2023-07-03T15:02:52.793Z,3.38
2023-07-03T15:05:21.198Z,2.67
2023-07-03T15:07:51.189Z,2.20
2023-07-03T15:10:19.466Z,2.13
2023-07-03T15:12:47.047Z,2.13
2023-07-03T15:15:13.975Z,2.03
2023-07-03T15:17:40.696Z,2.22
2023-07-03T15:20:07.851Z,1.83
2023-07-03T15:22:34.604Z,2.25
2023-07-03T15:25:01.012Z,1.83
2023-07-03T15:27:27.780Z,1.88
2023-07-03T15:29:55.399Z,1.50
2023-07-03T15:32:22.016Z,1.63
2023-07-03T15:34:49.462Z,1.88
2023-07-03T15:37:15.944Z,1.77
2023-07-03T15:39:42.296Z,2.35
2023-07-03T15:42:10.388Z,2.22
2023-07-03T15:44:37.375Z,1.85
2023-07-03T15:47:07.045Z,1.67
2023-07-03T15:49:36.594Z,1.70
2023-07-03T15:52:04.069Z,1.85
2023-07-03T15:54:30.512Z,2.15
2023-07-03T15:56:57.098Z,2.15
2023-07-03T15:59:25.654Z,2.00
2023-07-03T16:01:52.392Z,1.83
2023-07-03T16:04:18.911Z,1.25
2023-07-03T16:06:46.637Z,1.58
2023-07-03T16:09:15.783Z,1.73
2023-07-03T16:11:42.429Z,1.90
2023-07-03T16:14:08.869Z,2.40
2023-07-03T16:16:35.423Z,1.90
2023-07-03T16:19:04.105Z,1.90
2023-07-03T16:21:31.600Z,2.13
2023-07-03T16:23:58.877Z,1.73
2023-07-03T16:26:26.360Z,1.80
2023-07-03T16:28:55.584Z,1.80
2023-07-03T16:31:23.573Z,1.48
2023-07-03T16:33:51.165Z,1.92
2023-07-03T16:36:18.897Z,2.17
2023-07-03T16:38:50.149Z,2.00
2023-07-03T16:41:18.370Z,1.65
2023-07-03T16:43:47.954Z,1.60
2023-07-03T16:46:18.896Z,1.90
2023-07-03T16:48:45.910Z,1.85
2023-07-03T16:51:12.317Z,1.55
2023-07-03T16:53:40.596Z,2.58
2023-07-03T16:56:08.609Z,1.70
2023-07-03T16:58:37.450Z,1.80
2023-07-03T17:01:04.922Z,3.80
2023-07-03T17:03:34.479Z,2.22
2023-07-03T17:06:01.492Z,2.42
2023-07-03T17:08:28.313Z,2.97
2023-07-03T17:10:55.344Z,2.30
2023-07-03T17:13:21.871Z,2.67
2023-07-03T17:15:49.032Z,3.00
2023-07-03T17:18:15.627Z,2.40
2023-07-03T17:20:42.136Z,2.53
2023-07-03T17:23:09.355Z,2.15
2023-07-03T17:25:35.901Z,2.67
2023-07-03T17:28:04.879Z,2.90
2023-07-03T17:30:31.700Z,5.85
2023-07-03T17:32:59.711Z,2.38
2023-07-03T17:35:26.171Z,2.67
2023-07-03T17:37:53.781Z,3.30
2023-07-03T17:40:20.267Z,2.75
2023-07-03T17:42:46.756Z,3.30
2023-07-03T17:45:13.247Z,2.38
2023-07-03T17:47:39.799Z,2.35
2023-07-03T17:50:06.788Z,2.72
2023-07-03T17:52:33.189Z,2.50
2023-07-03T17:54:59.572Z,2.75
2023-07-03T17:57:25.948Z,3.42
2023-07-03T17:59:52.429Z,3.53
2023-07-03T18:02:20.222Z,2.50
2023-07-03T18:04:46.676Z,2.60
2023-07-03T18:07:15.423Z,2.30
2023-07-03T18:09:43.546Z,2.33
2023-07-03T18:12:15.874Z,2.38
2023-07-03T18:14:43.063Z,2.80
2023-07-03T18:17:09.838Z,2.15
2023-07-03T18:19:36.276Z,2.55
2023-07-03T18:22:02.734Z,2.15
2023-07-03T18:24:29.264Z,3.35
2023-07-03T18:26:56.217Z,2.58
2023-07-03T18:29:23.391Z,2.38
2023-07-03T18:31:53.915Z,2.42
2023-07-03T18:34:20.761Z,1.80
2023-07-03T18:36:47.340Z,2.17
2023-07-03T18:39:14.180Z,2.83
2023-07-03T18:41:45.415Z,2.50
2023-07-03T18:44:12.221Z,3.28
2023-07-03T18:46:38.788Z,2.67
2023-07-03T18:49:05.206Z,2.60
2023-07-03T18:51:33.166Z,3.00
2023-07-03T18:53:59.684Z,2.30
2023-07-03T18:56:26.596Z,3.95
2023-07-03T18:58:54.054Z,3.00
2023-07-03T19:01:23.253Z,2.05
2023-07-03T19:03:49.703Z,2.30
2023-07-03T19:06:17.667Z,2.17
2023-07-03T19:08:44.129Z,2.85
2023-07-03T19:11:11.081Z,3.35
2023-07-03T19:13:38.133Z,2.47
2023-07-03T19:16:10.552Z,2.85
2023-07-03T19:21:04.486Z,2.58
2023-07-03T19:23:30.980Z,2.80
2023-07-03T19:25:58.578Z,3.15
2023-07-03T19:28:28.078Z,2.13
2023-07-03T19:30:57.412Z,3.35
2023-07-03T19:33:24.388Z,2.85
2023-07-03T19:35:51.497Z,3.00
2023-07-03T19:38:18.794Z,2.85
2023-07-03T19:40:46.990Z,3.22
2023-07-03T19:43:13.413Z,2.45
2023-07-03T19:45:40.477Z,3.35
2023-07-03T19:48:07.738Z,2.95
2023-07-03T19:50:36.077Z,2.53
2023-07-03T19:53:02.970Z,2.25
2023-07-03T19:55:33.121Z,2.45
2023-07-03T19:57:59.939Z,2.58
2023-07-03T20:00:27.687Z,2.47
2023-07-03T20:02:54.562Z,2.00
2023-07-03T20:05:24.305Z,2.35
2023-07-03T20:07:52.824Z,1.92
2023-07-03T20:10:20.397Z,2.15
2023-07-03T20:12:52.131Z,2.22
2023-07-03T20:15:25.066Z,2.80
2023-07-03T20:17:52.583Z,2.15
2023-07-03T20:20:19.092Z,2.40
2023-07-03T20:22:45.745Z,2.40
2023-07-03T20:25:12.637Z,2.78
2023-07-03T20:27:40.212Z,2.85
2023-07-03T20:30:06.948Z,2.92
2023-07-03T20:32:34.511Z,3.00
2023-07-03T20:35:02.822Z,2.65
2023-07-03T20:37:30.811Z,2.95
2023-07-03T20:40:00.371Z,2.92
2023-07-03T20:42:28.086Z,2.97
2023-07-03T20:45:03.776Z,2.20
2023-07-03T20:47:32.613Z,1.75
2023-07-03T20:50:00.956Z,2.10
2023-07-03T20:52:28.454Z,2.53
2023-07-03T20:55:05.786Z,2.60
2023-07-03T20:57:36.899Z,2.28
2023-07-03T21:00:06.019Z,2.22
2023-07-03T21:02:33.352Z,1.65
2023-07-03T21:05:00.235Z,2.33
2023-07-03T21:07:26.659Z,2.08
2023-07-03T21:09:53.070Z,2.20
2023-07-03T21:12:19.862Z,2.10
2023-07-03T21:14:47.362Z,2.65
2023-07-03T21:17:14.019Z,2.15
2023-07-03T21:19:40.966Z,2.17
2023-07-03T21:22:09.016Z,2.60
2023-07-03T21:24:35.450Z,2.30
2023-07-03T21:27:01.941Z,2.72
2023-07-03T21:29:28.396Z,2.55
2023-07-03T21:31:54.840Z,2.40
2023-07-03T21:34:21.766Z,2.50
2023-07-03T21:36:48.641Z,3.42
2023-07-03T21:39:15.064Z,2.45
2023-07-03T21:41:43.047Z,3.10
2023-07-03T21:44:11.238Z,4.15
2023-07-03T21:46:37.923Z,3.33
2023-07-03T21:49:04.403Z,2.38
2023-07-03T21:51:30.962Z,2.63
2023-07-03T21:53:57.931Z,2.83
2023-07-03T21:56:28.663Z,1.88
2023-07-03T21:58:56.089Z,1.92
2023-07-03T22:01:31.131Z,2.10
2023-07-03T22:03:59.247Z,1.65
2023-07-03T22:06:26.732Z,2.17
2023-07-03T22:08:53.339Z,2.13
2023-07-03T22:11:20.048Z,1.80
2023-07-03T22:13:49.812Z,1.77
2023-07-03T22:16:18.793Z,2.20
2023-07-03T22:18:45.740Z,1.77
2023-07-03T22:21:12.689Z,1.52
2023-07-03T22:23:39.147Z,1.63
2023-07-03T22:26:05.866Z,2.05
2023-07-03T22:28:32.353Z,1.67
2023-07-03T22:31:00.149Z,1.80
2023-07-03T22:33:27.006Z,1.75
2023-07-03T22:35:53.952Z,2.03
2023-07-03T22:38:20.916Z,1.60
2023-07-03T22:40:49.427Z,1.75
2023-07-03T22:43:18.832Z,2.08
2023-07-03T22:45:53.190Z,1.75
2023-07-03T22:48:20.263Z,2.33
2023-07-03T22:50:53.517Z,2.10
2023-07-03T22:53:20.036Z,2.20
2023-07-03T22:55:46.553Z,1.92
2023-07-03T22:58:12.977Z,1.73
2023-07-03T23:00:40.024Z,1.92
2023-07-03T23:03:07.030Z,2.38
2023-07-03T23:05:34.629Z,1.63
2023-07-03T23:08:01.208Z,2.35
2023-07-03T23:10:27.639Z,1.92
2023-07-03T23:12:54.067Z,2.00
2023-07-03T23:15:20.498Z,2.53
2023-07-03T23:17:47.245Z,1.83
2023-07-03T23:20:15.659Z,1.90
2023-07-03T23:22:42.782Z,2.63
2023-07-03T23:25:09.641Z,2.45
2023-07-03T23:27:36.094Z,3.13
2023-07-03T23:30:05.354Z,1.98
2023-07-03T23:32:32.961Z,2.55
2023-07-03T23:34:59.630Z,2.20
2023-07-03T23:37:26.073Z,2.40
2023-07-03T23:39:52.529Z,2.53
2023-07-03T23:42:18.966Z,2.00
2023-07-03T23:44:46.406Z,2.35
2023-07-03T23:47:14.163Z,1.90
2023-07-03T23:49:40.765Z,3.03
2023-07-03T23:52:07.543Z,1.65
2023-07-03T23:54:34.823Z,2.40
2023-07-03T23:57:01.305Z,2.83
2023-07-03T23:59:28.161Z,2.35
